Time;durP1;ratioP1;P1;durP2;ratioP2;P2;SDS_P1;SDS_P2;PMS_P1;PMS_P2;Temp;Humidity;BMP_temperature;BMP_pressure;BME280_temperature;BME280_humidity;BME280_pressure;Samples;Min_cycle;Max_cycle;Signal;HPM_P1;HPM_P2
2022/02/15 00:01:42;;;;;;;7.75;4.93;;;;;;;-1.73;73.21;97050.75;5093660;28;20024;-67
2022/02/15 00:04:08;;;;;;;8.93;5.28;;;;;;;-1.69;73.10;97052.53;5093559;28;20374;-69
2022/02/15 00:06:34;;;;;;;8.73;3.80;;;;;;;-1.80;73.24;97049.78;5093472;28;20374;-69
2022/02/15 00:09:00;;;;;;;6.55;3.70;;;;;;;-1.86;74.18;97044.53;5093408;28;20020;-70
2022/02/15 00:11:26;;;;;;;4.40;3.53;;;;;;;-1.81;73.79;97048.03;5093322;28;20023;-68
2022/02/15 00:13:51;;;;;;;8.45;3.20;;;;;;;-1.79;73.34;97046.38;5092690;28;20109;-70
2022/02/15 00:16:17;;;;;;;3.53;3.10;;;;;;;-1.78;72.87;97048.97;5093362;28;20374;-68
2022/02/15 00:18:43;;;;;;;7.63;4.72;;;;;;;-1.76;72.54;97037.84;5093136;28;20478;-68
2022/02/15 00:21:09;;;;;;;6.88;3.75;;;;;;;-1.79;72.43;97046.38;5093399;28;20051;-68
2022/02/15 00:23:34;;;;;;;5.25;3.50;;;;;;;-1.80;72.73;97039.50;5093289;28;20367;-68
2022/02/15 00:26:00;;;;;;;6.85;4.28;;;;;;;-1.84;72.55;97041.13;5093120;28;20020;-68
2022/02/15 00:28:26;;;;;;;4.78;3.30;;;;;;;-2.03;73.27;97045.06;5075121;28;20035;-69
2022/02/15 00:30:52;;;;;;;8.20;5.90;;;;;;;-1.95;73.30;97042.66;5093215;28;20024;-68
2022/02/15 00:33:18;;;;;;;7.03;4.95;;;;;;;-2.11;73.85;97044.03;5093232;28;20119;-68
2022/02/15 00:35:43;;;;;;;10.70;4.60;;;;;;;-2.16;74.95;97038.81;5093082;28;20462;-70
2022/02/15 00:38:09;;;;;;;6.10;4.25;;;;;;;-2.19;75.22;97034.50;5093103;28;20047;-68
2022/02/15 00:40:35;;;;;;;5.25;3.60;;;;;;;-2.24;74.77;97033.53;5092957;28;20030;-69
2022/02/15 00:43:00;;;;;;;7.68;4.65;;;;;;;-2.25;75.13;97030.94;5093057;28;20051;-68
2022/02/15 00:45:26;;;;;;;7.93;5.07;;;;;;;-2.39;75.06;97028.94;5092928;28;20028;-69
2022/02/15 00:47:51;;;;;;;8.05;4.50;;;;;;;-2.41;75.56;97028.03;5092939;28;20025;-69
2022/02/15 00:50:17;;;;;;;6.55;4.00;;;;;;;-2.38;75.31;97028.09;5093031;28;20376;-69
2022/02/15 00:52:42;;;;;;;9.10;3.95;;;;;;;-2.36;74.85;97028.13;5092874;28;20084;-68
2022/02/15 00:55:13;;;;;;;10.13;4.72;;;;;;;-2.33;74.50;97026.50;5092918;28;20095;-68
2022/02/15 00:57:40;;;;;;;9.43;5.20;;;;;;;-2.37;74.89;97034.97;5093048;28;20473;-68
2022/02/15 01:00:08;;;;;;;7.47;5.20;;;;;;;-2.46;75.44;97029.66;5092788;28;20024;-68
2022/02/15 01:02:33;;;;;;;8.93;5.28;;;;;;;-2.41;75.51;97036.59;5092788;28;20024;-68
2022/02/15 01:04:59;;;;;;;12.48;5.07;;;;;;;-2.34;75.13;97036.72;5092759;28;20017;-68
2022/02/15 01:07:25;;;;;;;8.32;4.82;;;;;;;-2.30;74.61;97028.28;5092856;28;20020;-69
2022/02/15 01:09:50;;;;;;;8.82;4.47;;;;;;;-2.35;74.54;97028.16;5074782;28;20031;-69
2022/02/15 01:12:16;;;;;;;8.32;4.95;;;;;;;-2.32;74.32;97019.69;5092856;28;20497;-69
2022/02/15 01:14:41;;;;;;;9.65;5.60;;;;;;;-2.36;74.25;97011.06;5092776;28;20024;-69
2022/02/15 01:17:07;;;;;;;12.15;6.05;;;;;;;-2.42;75.03;97019.50;5092641;28;20027;-69
2022/02/15 01:19:33;;;;;;;9.98;6.07;;;;;;;-2.42;75.56;97009.25;5092505;28;20044;-69
2022/02/15 01:21:58;;;;;;;11.35;5.95;;;;;;;-2.37;74.82;97003.34;5092652;28;20028;-69
2022/02/15 01:24:24;;;;;;;9.02;5.28;;;;;;;-2.38;74.11;96996.50;5093500;28;20023;-69
2022/02/15 01:26:49;;;;;;;8.90;5.30;;;;;;;-2.41;73.88;96997.28;5096559;28;20028;-69
2022/02/15 01:29:15;;;;;;;14.35;6.43;;;;;;;-2.44;74.19;97003.22;5096443;28;20099;-69
2022/02/15 01:31:40;;;;;;;9.57;5.63;;;;;;;-2.45;74.54;97009.19;5096242;28;20077;-69
2022/02/15 01:34:06;;;;;;;9.23;5.55;;;;;;;-2.47;74.07;97021.09;5096347;28;20016;-69
2022/02/15 01:36:31;;;;;;;9.32;5.57;;;;;;;-2.41;74.95;97012.66;5096267;28;20024;-69
2022/02/15 01:38:57;;;;;;;9.50;5.95;;;;;;;-2.46;74.49;97004.03;5096038;28;20024;-69
2022/02/15 01:41:22;;;;;;;12.18;6.43;;;;;;;-2.57;75.44;97003.78;5096294;28;20052;-69
2022/02/15 01:43:49;;;;;;;10.95;6.68;;;;;;;-2.55;77.29;96997.00;5096147;28;20587;-69
2022/02/15 01:46:15;;;;;;;16.92;8.85;;;;;;;-2.72;77.92;96996.63;5095936;28;20093;-69
2022/02/15 01:48:47;;;;;;;9.68;6.32;;;;;;;-2.73;78.33;96990.66;5096001;28;20101;-69
2022/02/15 01:51:15;;;;;;;13.48;6.50;;;;;;;-2.68;77.84;97004.41;5096062;28;20028;-69
2022/02/15 01:53:40;;;;;;;7.43;5.40;;;;;;;-2.63;76.80;96996.84;5095967;28;20024;-69
2022/02/15 01:56:08;;;;;;;8.20;5.15;;;;;;;-2.84;76.21;96969.94;5095983;28;20024;-69
2022/02/15 01:58:34;;;;;;;9.15;5.22;;;;;;;-2.69;75.62;96994.13;5095820;28;20025;-69
2022/02/15 02:01:00;;;;;;;8.98;4.65;;;;;;;-2.73;75.30;96993.22;5095843;28;20086;-69
2022/02/15 02:03:26;;;;;;;8.55;4.97;;;;;;;-2.73;75.59;96992.34;5095933;28;20031;-69
2022/02/15 02:05:52;;;;;;;8.18;5.30;;;;;;;-2.68;75.61;96998.47;5095507;28;20028;-69
2022/02/15 02:08:19;;;;;;;7.03;4.90;;;;;;;-2.67;76.18;96997.63;5095696;28;20032;-69
2022/02/15 02:10:46;;;;;;;15.52;6.32;;;;;;;-2.72;76.33;97000.06;5095584;28;20099;-69
2022/02/15 02:13:11;;;;;;;9.43;5.70;;;;;;;-2.73;76.61;96994.91;5095559;28;20027;-69
2022/02/15 02:15:37;;;;;;;8.75;5.30;;;;;;;-2.71;76.84;97004.34;5095581;28;20032;-69
2022/02/15 02:18:04;;;;;;;11.35;5.68;;;;;;;-2.63;76.44;97008.78;5095183;28;20428;-69
2022/02/15 02:20:29;;;;;;;44.55;31.70;;;;;;;-2.61;75.79;96999.44;5095504;28;20027;-69
2022/02/15 02:22:55;;;;;;;18.45;12.13;;;;;;;-2.56;74.94;97001.25;5095390;28;20541;-69
2022/02/15 02:25:22;;;;;;;10.77;6.63;;;;;;;-2.56;74.79;96996.13;5095310;28;20059;-70
2022/02/15 02:27:48;;;;;;;10.73;6.03;;;;;;;-2.59;74.74;97008.88;5095395;28;20085;-69
2022/02/15 02:30:15;;;;;;;12.93;6.00;;;;;;;-2.64;75.25;97007.94;5095431;28;20017;-69
2022/02/15 02:32:41;;;;;;;8.57;5.47;;;;;;;-2.62;74.92;97003.69;5095284;28;20103;-69
2022/02/15 02:35:08;;;;;;;6.68;5.22;;;;;;;-2.62;74.33;97003.69;5095192;28;20030;-69
2022/02/15 02:37:35;;;;;;;7.57;5.82;;;;;;;-2.62;74.14;97005.41;5094519;28;20048;-69
2022/02/15 02:40:03;;;;;;;9.27;5.15;;;;;;;-2.64;74.44;97002.81;5095113;28;20016;-70
2022/02/15 02:42:30;;;;;;;9.57;6.50;;;;;;;-2.70;74.46;97003.53;5095154;28;20477;-69
2022/02/15 02:45:04;;;;;;;11.23;6.82;;;;;;;-2.69;74.63;97004.38;5094879;28;20027;-69
2022/02/15 02:47:30;;;;;;;8.95;6.78;;;;;;;-2.71;74.97;97003.50;5095154;28;20028;-69
2022/02/15 02:49:56;;;;;;;14.73;7.20;;;;;;;-2.71;75.17;97012.03;5094946;28;20049;-69
2022/02/15 02:52:23;;;;;;;13.48;6.40;;;;;;;-2.82;75.22;97006.69;5094886;28;20094;-69
2022/02/15 02:54:51;;;;;;;13.20;7.28;;;;;;;-2.77;75.22;97005.94;5094768;28;20099;-69
2022/02/15 02:57:17;;;;;;;11.45;7.13;;;;;;;-2.86;75.10;97007.44;5094644;28;20090;-69
2022/02/15 02:59:46;;;;;;;10.13;6.85;;;;;;;-2.84;75.12;97015.16;5094737;28;20478;-69
2022/02/15 03:02:12;;;;;;;7.50;5.57;;;;;;;-2.86;75.25;97009.16;5094626;28;20043;-69
2022/02/15 03:04:38;;;;;;;11.07;5.80;;;;;;;-2.84;74.91;97007.47;5094554;28;20031;-69
2022/02/15 03:07:05;;;;;;;17.83;7.03;;;;;;;-2.83;74.96;97007.50;5094545;28;20020;-69
2022/02/15 03:09:31;;;;;;;9.43;6.45;;;;;;;-2.79;74.94;97006.72;5094484;28;20382;-69
2022/02/15 03:11:56;;;;;;;9.20;6.13;;;;;;;-2.79;74.57;97005.91;5094318;28;20020;-69
2022/02/15 03:14:22;;;;;;;11.30;6.88;;;;;;;-2.84;74.73;96997.22;5094506;28;20043;-69
2022/02/15 03:16:47;;;;;;;12.93;7.50;;;;;;;-2.93;74.92;96992.75;5094375;28;20024;-69
2022/02/15 03:19:13;;;;;;;12.50;7.55;;;;;;;-2.99;75.05;96988.38;5093991;28;20044;-69
2022/02/15 03:21:39;;;;;;;12.68;7.15;;;;;;;-2.95;75.69;97000.41;5094291;28;20042;-69
2022/02/15 03:24:04;;;;;;;15.25;8.23;;;;;;;-3.00;76.15;96999.47;5094340;28;20020;-69
2022/02/15 03:26:30;;;;;;;12.23;8.70;;;;;;;-3.01;76.47;96994.28;5094145;28;20016;-69
2022/02/15 03:28:56;;;;;;;15.43;8.73;;;;;;;-3.00;76.31;97003.69;5094199;28;20032;-69
2022/02/15 03:31:22;;;;;;;15.73;7.88;;;;;;;-2.98;75.99;96997.78;5094029;28;20473;-69
2022/02/15 03:33:47;;;;;;;13.30;7.95;;;;;;;-2.95;75.85;97007.25;5093928;28;20020;-69
2022/02/15 03:36:14;;;;;;;12.27;8.80;;;;;;;-3.04;76.22;96997.66;5094037;28;20027;-69
2022/02/15 03:38:40;;;;;;;13.90;8.85;;;;;;;-3.00;75.91;97002.03;5094120;28;20016;-69
2022/02/15 03:43:50;;;;;;;22.10;9.90;;;;;;;-3.01;75.84;97013.06;5094193;28;20135;-69
2022/02/15 03:46:16;;;;;;;17.00;8.73;;;;;;;-3.05;76.12;97016.38;5093771;28;20482;-69
2022/02/15 03:48:43;;;;;;;15.90;8.93;;;;;;;-3.05;76.37;97018.94;5092935;28;20108;-69
2022/02/15 03:51:08;;;;;;;21.52;9.82;;;;;;;-3.06;75.37;97014.66;5093857;28;20052;-69
2022/02/15 03:53:34;;;;;;;16.38;9.30;;;;;;;-3.06;76.11;97015.56;5093724;28;20051;-69
2022/02/15 03:56:00;;;;;;;15.77;9.80;;;;;;;-3.09;77.08;97019.72;5093488;28;20077;-69
2022/02/15 03:58:25;;;;;;;24.20;10.88;;;;;;;-3.12;77.09;97023.06;5093788;28;20026;-69
2022/02/15 04:00:51;;;;;;;16.70;9.63;;;;;;;-3.22;77.07;97010.88;5093552;28;20032;-69
2022/02/15 04:03:17;;;;;;;16.02;9.52;;;;;;;-3.24;77.35;97012.53;5093619;28;20032;-70
2022/02/15 04:05:43;;;;;;;13.48;8.98;;;;;;;-3.24;76.38;96999.75;5093306;28;20363;-69
2022/02/15 04:08:08;;;;;;;15.57;8.63;;;;;;;-3.25;75.98;97001.41;5093545;28;20086;-69
2022/02/15 04:10:35;;;;;;;16.30;9.43;;;;;;;-3.30;75.84;97008.13;5093425;28;20016;-69
2022/02/15 04:13:01;;;;;;;12.95;8.82;;;;;;;-3.34;76.00;97011.47;5093327;28;20073;-69
2022/02/15 04:15:26;;;;;;;16.17;9.20;;;;;;;-3.32;75.52;97004.66;5075220;28;20431;-69
2022/02/15 04:17:52;;;;;;;16.63;9.30;;;;;;;-3.27;75.28;97007.34;5093380;28;20016;-69
2022/02/15 04:20:17;;;;;;;18.65;9.30;;;;;;;-3.28;75.55;97003.06;5092938;28;20520;-69
2022/02/15 04:22:43;;;;;;;16.70;8.82;;;;;;;-3.32;75.62;96997.88;5093226;28;20020;-69
2022/02/15 04:25:10;;;;;;;18.25;9.27;;;;;;;-3.36;76.03;96997.75;5093287;28;20103;-69
2022/02/15 04:27:36;;;;;;;18.63;9.57;;;;;;;-3.31;76.99;97006.41;5093264;28;20105;-69
2022/02/15 04:30:05;;;;;;;17.38;9.70;;;;;;;-3.25;77.52;97021.91;5093145;28;20020;-69
2022/02/15 04:32:30;;;;;;;14.65;8.82;;;;;;;-3.23;77.34;97030.50;5093170;28;20434;-70
2022/02/15 04:34:56;;;;;;;16.63;9.25;;;;;;;-3.17;76.92;97034.88;5093079;28;20100;-69
2022/02/15 04:37:22;;;;;;;11.15;7.75;;;;;;;-3.15;75.56;97048.59;5092995;28;20138;-69
2022/02/15 04:39:48;;;;;;;11.45;8.40;;;;;;;-3.23;75.39;97032.16;5093096;28;20107;-69
2022/02/15 04:42:15;;;;;;;14.68;8.82;;;;;;;-3.19;75.27;97034.84;5093075;28;20077;-69
2022/02/15 04:44:41;;;;;;;18.73;9.90;;;;;;;-3.29;77.10;97027.78;5092703;28;20467;-69
2022/02/15 04:47:07;;;;;;;14.63;9.27;;;;;;;-3.19;77.72;97029.72;5093000;28;20024;-69
2022/02/15 04:49:32;;;;;;;13.00;7.93;;;;;;;-3.15;76.47;97025.56;5092930;28;20060;-69
2022/02/15 04:51:58;;;;;;;14.18;10.18;;;;;;;-3.18;76.16;97021.25;5092970;28;20496;-70
2022/02/15 04:54:25;;;;;;;13.93;8.40;;;;;;;-3.16;75.80;97023.84;5092827;28;20446;-70
2022/02/15 04:56:52;;;;;;;14.00;8.45;;;;;;;-3.19;75.72;97039.13;5092899;28;20103;-70
2022/02/15 04:59:18;;;;;;;16.55;9.00;;;;;;;-3.21;75.73;97035.66;5093444;28;20515;-69
2022/02/15 05:01:44;;;;;;;18.77;9.38;;;;;;;-3.20;76.27;97030.56;5097096;28;20024;-69
2022/02/15 05:04:48;;;;;;;16.65;9.60;;;;;;;-3.12;78.68;97045.25;5096999;28;20432;-69
2022/02/15 05:06:59;;;;;;;17.52;9.23;;;;;;;-3.14;78.30;97055.44;5096006;28;20516;-69
2022/02/15 05:09:26;;;;;;;15.85;9.07;;;;;;;-3.19;78.33;97052.75;5096859;28;20024;-69
2022/02/15 05:11:52;;;;;;;16.90;8.90;;;;;;;-3.12;78.05;97060.59;5096778;28;20031;-69
2022/02/15 05:14:17;;;;;;;13.20;8.45;;;;;;;-3.07;77.78;97069.28;5096752;28;20024;-69
2022/02/15 05:16:43;;;;;;;15.88;7.55;;;;;;;-3.03;76.66;97068.50;5096771;28;20016;-69
2022/02/15 05:19:08;;;;;;;16.25;9.25;;;;;;;-3.01;76.43;97066.00;5096228;28;20482;-70
2022/02/15 05:21:35;;;;;;;15.57;8.93;;;;;;;-3.03;76.38;97065.06;5096552;28;20481;-69
2022/02/15 05:24:01;;;;;;;16.08;9.30;;;;;;;-3.07;76.41;97061.59;5096622;28;20016;-69
2022/02/15 05:26:30;;;;;;;17.05;8.40;;;;;;;-3.10;76.38;97064.06;5078300;28;20032;-69
2022/02/15 05:28:55;;;;;;;15.07;8.38;;;;;;;-3.13;76.46;97064.00;5096587;28;20023;-69
2022/02/15 05:31:21;;;;;;;13.88;7.70;;;;;;;-3.15;76.79;97063.97;5096391;28;20016;-69
2022/02/15 05:33:46;;;;;;;16.20;10.23;;;;;;;-3.13;76.41;97064.84;5096565;28;20150;-69
2022/02/15 05:36:12;;;;;;;15.35;7.70;;;;;;;-3.10;77.23;97062.34;5096344;28;20081;-69
2022/02/15 05:38:38;;;;;;;13.52;9.00;;;;;;;-3.05;77.70;97065.03;5096253;28;20028;-69
2022/02/15 05:41:04;;;;;;;17.38;9.20;;;;;;;-2.94;77.61;97067.88;5096212;28;20020;-69
2022/02/15 05:43:33;;;;;;;12.10;7.57;;;;;;;-2.85;76.65;97073.22;5096259;28;20027;-69
2022/02/15 05:45:58;;;;;;;13.88;8.50;;;;;;;-2.75;75.88;97084.53;5096045;28;20082;-69
2022/02/15 05:48:24;;;;;;;12.98;7.57;;;;;;;-2.71;75.41;97090.59;5095997;28;20028;-69
2022/02/15 05:50:50;;;;;;;12.90;8.90;;;;;;;-2.64;75.65;97089.91;5096198;28;20016;-69
2022/02/15 05:53:23;;;;;;;12.23;8.70;;;;;;;-2.50;76.02;97086.81;5096027;28;20024;-69
2022/02/15 05:55:51;;;;;;;16.52;9.77;;;;;;;-1.78;76.65;97090.00;5096107;28;20431;-70
2022/02/15 05:58:17;;;;;;;14.52;8.52;;;;;;;-0.66;74.25;97092.78;5095892;28;20038;-70
2022/02/15 06:00:43;;;;;;;15.25;7.35;;;;;;;0.41;71.23;97090.75;5095938;28;20099;-70
2022/02/15 06:05:52;;;;;;;8.52;5.28;;;;;;;2.83;61.36;97091.44;5096125;28;20446;-70
2022/02/15 06:08:18;;;;;;;9.80;5.53;;;;;;;3.87;57.18;97091.41;5095792;28;20099;-70
2022/02/15 06:10:46;;;;;;;10.05;6.00;;;;;;;4.85;52.79;97092.69;5094961;28;20067;-70
2022/02/15 06:13:13;;;;;;;9.48;5.45;;;;;;;5.56;51.68;97091.31;5095487;28;20396;-70
2022/02/15 06:15:38;;;;;;;9.23;5.43;;;;;;;6.10;51.14;97091.66;5095755;28;20028;-70
2022/02/15 06:18:04;;;;;;;9.55;6.13;;;;;;;6.63;50.15;97085.81;5095704;28;20481;-70
2022/02/15 06:20:29;;;;;;;12.18;6.25;;;;;;;7.54;48.79;97087.06;5077222;28;20040;-70
2022/02/15 06:22:55;;;;;;;9.18;7.40;;;;;;;8.37;46.65;97083.78;5095574;28;20024;-70
2022/02/15 06:25:21;;;;;;;9.27;5.90;;;;;;;9.22;43.36;97080.22;5095499;28;20020;-70
2022/02/15 06:27:46;;;;;;;10.82;5.43;;;;;;;9.96;41.25;97080.09;5095427;28;20039;-70
2022/02/15 06:30:12;;;;;;;8.52;5.50;;;;;;;10.69;40.63;97076.38;5095434;28;20021;-70
2022/02/15 06:32:38;;;;;;;7.57;5.57;;;;;;;11.35;38.91;97070.81;5095321;28;20047;-70
2022/02/15 06:35:04;;;;;;;8.63;5.97;;;;;;;11.75;38.10;97070.41;5095229;28;20028;-70
2022/02/15 06:37:30;;;;;;;7.25;5.20;;;;;;;12.04;38.13;97072.94;5095280;28;20020;-70
2022/02/15 06:39:56;;;;;;;8.65;5.90;;;;;;;12.49;37.67;97077.44;5094885;28;20031;-71
2022/02/15 06:42:21;;;;;;;9.07;6.15;;;;;;;13.01;37.13;97078.97;5095274;28;20496;-71
2022/02/15 06:44:47;;;;;;;6.60;5.68;;;;;;;13.68;36.25;97075.47;5095089;28;20045;-71
2022/02/15 06:47:13;;;;;;;9.23;6.00;;;;;;;14.31;35.25;97071.03;5095074;28;20029;-71
2022/02/15 06:49:38;;;;;;;7.22;5.65;;;;;;;14.99;33.96;97061.81;5095092;28;20020;-70
2022/02/15 06:52:04;;;;;;;9.73;6.63;;;;;;;15.71;32.88;97057.53;5095078;28;20027;-70
2022/02/15 06:54:30;;;;;;;8.27;6.22;;;;;;;16.30;32.14;97059.78;5094912;28;20027;-71
2022/02/15 06:56:55;;;;;;;6.47;5.18;;;;;;;16.82;31.13;97057.06;5094954;28;20028;-71
2022/02/15 06:59:21;;;;;;;8.90;6.32;;;;;;;17.24;30.41;97067.97;5094944;28;20027;-70
2022/02/15 07:01:47;;;;;;;8.57;6.25;;;;;;;17.41;30.40;97070.53;5094852;28;20386;-70
2022/02/15 07:04:12;;;;;;;7.80;6.15;;;;;;;17.58;29.86;97068.66;5094679;28;20028;-70
2022/02/15 07:06:39;;;;;;;11.57;6.28;;;;;;;17.50;30.06;97076.22;5094696;28;20431;-70
2022/02/15 07:09:05;;;;;;;8.98;6.93;;;;;;;17.47;30.92;97071.94;5094543;28;20055;-70
2022/02/15 07:11:31;;;;;;;10.68;7.93;;;;;;;17.40;30.25;97066.16;5094623;28;20024;-70
2022/02/15 07:13:57;;;;;;;11.30;8.15;;;;;;;17.46;30.12;97061.47;5094658;28;20099;-70
2022/02/15 07:16:22;;;;;;;11.60;7.97;;;;;;;18.04;29.74;97061.59;5094601;28;20553;-70
2022/02/15 07:18:48;;;;;;;14.80;7.65;;;;;;;18.38;29.51;97067.53;5094177;28;20072;-70
2022/02/15 07:21:14;;;;;;;9.98;7.93;;;;;;;18.89;28.84;97074.13;5094391;28;20056;-70
2022/02/15 07:23:40;;;;;;;10.27;7.55;;;;;;;19.32;28.63;97069.66;5094217;28;20385;-70
2022/02/15 07:26:06;;;;;;;9.18;7.40;;;;;;;19.29;28.72;97075.16;5094293;28;20474;-70
2022/02/15 07:28:33;;;;;;;9.77;7.72;;;;;;;18.92;29.50;97070.41;5094197;28;20402;-70
2022/02/15 07:30:59;;;;;;;11.82;8.07;;;;;;;19.10;28.63;97064.91;5094300;28;20020;-71
2022/02/15 07:33:24;;;;;;;10.45;7.60;;;;;;;19.44;28.25;97062.69;5094154;28;20020;-71
2022/02/15 07:35:50;;;;;;;10.68;7.38;;;;;;;20.25;27.56;97059.13;5094096;28;20024;-70
2022/02/15 07:38:15;;;;;;;11.48;8.02;;;;;;;19.92;27.77;97062.19;5094064;28;20028;-71
2022/02/15 07:40:41;;;;;;;10.02;8.00;;;;;;;19.83;27.60;97058.34;5093963;28;20020;-70
2022/02/15 07:43:07;;;;;;;13.32;7.53;;;;;;;20.22;27.56;97062.84;5094046;28;20535;-71
2022/02/15 07:45:33;;;;;;;11.07;7.70;;;;;;;20.80;26.51;97058.88;5094019;28;20024;-71
2022/02/15 07:47:59;;;;;;;12.27;8.13;;;;;;;20.60;26.97;97054.97;5094068;28;20024;-71
2022/02/15 07:50:25;;;;;;;12.40;7.78;;;;;;;20.07;28.13;97051.47;5093902;28;20387;-71
2022/02/15 07:52:52;;;;;;;12.52;8.45;;;;;;;19.08;29.26;97058.88;5093771;28;20059;-71
2022/02/15 07:55:19;;;;;;;11.57;8.45;;;;;;;19.45;28.33;97051.16;5093787;28;20024;-71
2022/02/15 07:57:44;;;;;;;11.50;8.77;;;;;;;20.08;27.58;97051.38;5093693;28;20032;-70
2022/02/15 08:00:12;;;;;;;9.82;8.07;;;;;;;20.70;26.63;97048.91;5093806;28;20024;-71
2022/02/15 08:02:38;;;;;;;10.05;8.63;;;;;;;20.24;27.56;97060.09;5093705;28;20023;-70
2022/02/15 08:05:04;;;;;;;9.25;8.02;;;;;;;20.61;26.89;97054.84;5093559;28;20453;-71
2022/02/15 08:07:33;;;;;;;12.20;9.45;;;;;;;20.59;26.63;97051.47;5093672;28;20465;-71
2022/02/15 08:09:59;;;;;;;11.10;8.25;;;;;;;20.80;26.48;97056.22;5093464;28;20027;-71
2022/02/15 08:12:25;;;;;;;14.18;8.43;;;;;;;20.27;27.00;97058.09;5093465;28;20031;-71
2022/02/15 08:14:51;;;;;;;11.65;8.43;;;;;;;19.66;27.96;97053.31;5093586;28;20462;-71
2022/02/15 08:17:17;;;;;;;11.85;8.40;;;;;;;18.87;29.50;97056.63;5093471;28;20035;-71
2022/02/15 08:19:42;;;;;;;12.32;9.07;;;;;;;19.19;28.96;97046.63;5093212;28;20044;-71
2022/02/15 08:22:08;;;;;;;10.68;8.52;;;;;;;19.26;28.87;97049.69;5093412;28;20036;-71
2022/02/15 08:24:34;;;;;;;12.85;8.75;;;;;;;18.19;29.87;97057.22;5093403;28;20031;-70
2022/02/15 08:27:01;;;;;;;13.07;9.05;;;;;;;17.73;30.78;97052.84;5093337;28;20026;-70
2022/02/15 08:29:28;;;;;;;11.57;9.20;;;;;;;16.65;32.35;97057.03;5093276;28;20043;-71
2022/02/15 08:31:54;;;;;;;13.15;8.90;;;;;;;15.57;33.79;97063.47;5093168;28;20016;-70
2022/02/15 08:34:20;;;;;;;18.17;10.32;;;;;;;14.45;36.68;97065.13;5092607;28;20104;-70
2022/02/15 08:36:46;;;;;;;13.00;9.57;;;;;;;13.77;37.99;97061.09;5093278;28;20108;-70
2022/02/15 08:39:15;;;;;;;15.57;10.65;;;;;;;13.44;37.59;97066.81;5093344;28;20039;-70
2022/02/15 08:41:41;;;;;;;13.52;9.82;;;;;;;12.82;39.31;97049.13;5093101;28;20051;-70
2022/02/15 08:44:07;;;;;;;12.75;9.85;;;;;;;12.19;41.89;97064.53;5093118;28;20023;-70
2022/02/15 08:46:32;;;;;;;14.27;9.10;;;;;;;11.77;42.70;97071.19;5093016;28;20020;-70
2022/02/15 08:48:58;;;;;;;17.23;10.00;;;;;;;11.65;42.20;97066.41;5093124;28;20486;-70
2022/02/15 08:51:23;;;;;;;12.98;8.98;;;;;;;11.37;43.12;97069.03;5093156;28;20020;-70
2022/02/15 08:53:53;;;;;;;12.50;9.02;;;;;;;11.15;44.93;97062.75;5093023;28;20048;-70
2022/02/15 08:56:20;;;;;;;13.70;9.20;;;;;;;11.06;43.68;97056.94;5093014;28;20031;-70
2022/02/15 08:58:47;;;;;;;15.20;9.40;;;;;;;10.90;45.30;97050.47;5092975;28;20407;-69
2022/02/15 09:01:13;;;;;;;16.98;9.43;;;;;;;10.70;45.89;97046.69;5092938;28;20027;-70
2022/02/15 09:03:39;;;;;;;14.65;8.65;;;;;;;10.38;47.02;97043.25;5093041;28;20024;-70
2022/02/15 09:06:05;;;;;;;13.10;9.50;;;;;;;10.40;47.18;97037.06;5092939;28;20073;-70
2022/02/15 09:08:31;;;;;;;13.65;9.57;;;;;;;10.71;45.95;97032.69;5092853;28;20028;-70
2022/02/15 09:10:56;;;;;;;12.68;9.70;;;;;;;10.70;46.31;97031.00;5092947;28;20085;-71
2022/02/15 09:13:22;;;;;;;14.73;9.70;;;;;;;10.65;45.62;97040.75;5092873;28;20473;-71
2022/02/15 09:15:48;;;;;;;13.60;8.82;;;;;;;10.63;44.84;97032.09;5092898;28;20031;-71
2022/02/15 09:18:13;;;;;;;18.00;9.45;;;;;;;10.79;45.24;97030.72;5092699;28;20032;-70
2022/02/15 09:20:41;;;;;;;15.45;9.13;;;;;;;10.73;46.16;97021.28;5092773;28;20382;-70
2022/02/15 09:23:06;;;;;;;20.33;9.20;;;;;;;10.83;46.79;97018.38;5092829;28;20378;-71
2022/02/15 09:25:32;;;;;;;13.00;8.63;;;;;;;10.94;45.12;97023.28;5092554;28;20043;-71
2022/02/15 09:27:58;;;;;;;12.85;8.82;;;;;;;10.94;44.84;97020.66;5092617;28;20114;-70
2022/02/15 09:30:25;;;;;;;10.93;8.25;;;;;;;10.93;45.40;97017.16;5092742;28;20048;-70
2022/02/15 09:32:51;;;;;;;14.13;9.38;;;;;;;10.64;46.91;97012.84;5092756;28;20024;-71
2022/02/15 09:35:16;;;;;;;12.48;7.88;;;;;;;10.70;46.37;97012.69;5092653;28;20031;-70
2022/02/15 09:37:42;;;;;;;12.45;8.38;;;;;;;10.78;45.49;97009.81;5092579;28;20027;-71
2022/02/15 09:40:09;;;;;;;10.48;8.20;;;;;;;10.85;45.28;97013.97;5092498;28;20466;-70
2022/02/15 09:42:36;;;;;;;12.85;8.68;;;;;;;10.74;45.62;97014.28;5092626;28;20103;-71
2022/02/15 09:45:04;;;;;;;12.48;9.52;;;;;;;10.83;47.64;97014.00;5092540;28;20023;-71
2022/02/15 09:47:33;;;;;;;11.82;8.82;;;;;;;10.90;46.47;97012.06;5096145;28;20028;-70
2022/02/15 09:50:01;;;;;;;12.52;8.48;;;;;;;10.96;47.13;97013.63;5096112;28;20031;-71
2022/02/15 09:52:27;;;;;;;19.58;9.05;;;;;;;11.10;46.84;97021.88;5096203;28;20382;-70
2022/02/15 09:54:55;;;;;;;15.32;10.13;;;;;;;10.89;46.86;97025.19;5096144;28;20043;-70
2022/02/15 09:57:21;;;;;;;14.13;9.70;;;;;;;10.78;47.01;97012.44;5096066;28;20111;-70
2022/02/15 09:59:48;;;;;;;15.60;9.45;;;;;;;10.60;47.69;97010.34;5095943;28;20024;-71
2022/02/15 10:02:25;;;;;;;15.98;10.55;;;;;;;10.63;48.44;97005.91;5096110;28;20054;-71
2022/02/15 10:04:52;;;;;;;19.55;10.88;;;;;;;10.81;47.29;97001.88;5095925;28;20477;-70
2022/02/15 10:07:18;;;;;;;13.70;9.45;;;;;;;10.78;47.73;97004.59;5095827;28;20020;-70
2022/02/15 10:09:52;;;;;;;14.93;10.10;;;;;;;10.78;47.81;96991.50;5096034;28;20126;-70
2022/02/15 10:12:19;;;;;;;13.88;9.75;;;;;;;10.91;46.05;96987.59;5095757;28;20024;-70
2022/02/15 10:14:47;;;;;;;15.32;9.63;;;;;;;10.91;47.71;96976.25;5095863;28;20103;-70
2022/02/15 10:17:16;;;;;;;12.02;9.02;;;;;;;11.10;46.65;96977.38;5095705;28;20389;-70
2022/02/15 10:19:44;;;;;;;10.35;8.63;;;;;;;11.21;46.07;96976.16;5095457;28;20040;-71
2022/02/15 10:22:10;;;;;;;12.48;8.98;;;;;;;11.41;46.05;96977.25;5095623;28;20020;-71
2022/02/15 10:24:38;;;;;;;10.68;8.85;;;;;;;11.49;45.67;96970.84;5095509;28;20106;-70
2022/02/15 10:27:08;;;;;;;12.00;8.27;;;;;;;11.66;45.42;96974.63;5095372;28;20031;-70
2022/02/15 10:29:36;;;;;;;10.02;8.10;;;;;;;11.65;44.89;96962.41;5095422;28;20024;-70
2022/02/15 10:32:04;;;;;;;12.70;8.13;;;;;;;11.40;45.28;96965.91;5095371;28;20020;-70
2022/02/15 10:34:31;;;;;;;15.13;9.25;;;;;;;11.28;44.95;96961.06;5095276;28;20031;-70
2022/02/15 10:37:04;;;;;;;12.70;9.35;;;;;;;11.06;46.45;96957.44;5095385;28;20473;-71
2022/02/15 10:39:47;;;;;;;14.05;8.88;;;;;;;10.99;47.58;96955.94;5095285;28;20397;-70
2022/02/15 10:42:18;;;;;;;12.65;9.05;;;;;;;10.84;47.42;96944.22;5095259;28;20056;-71
2022/02/15 10:44:50;;;;;;;;;;;;;;;10.93;46.33;96948.28;5095625;28;20385;-70
2022/02/15 10:47:16;;;;;;;11.63;9.13;;;;;;;10.80;48.58;96947.81;5095143;28;19963;-70
2022/02/15 10:49:42;;;;;;;14.50;9.07;;;;;;;11.08;46.83;96952.16;5095088;28;20058;-70
2022/02/15 10:52:09;;;;;;;16.63;9.00;;;;;;;11.15;47.06;96951.03;5095020;28;20089;-70
2022/02/15 10:54:38;;;;;;;12.77;8.68;;;;;;;11.29;45.36;96949.72;5095068;28;20103;-70
2022/02/15 10:57:04;;;;;;;13.65;9.13;;;;;;;11.06;46.57;96952.22;5094351;28;20482;-70
2022/02/15 10:59:33;;;;;;;13.15;9.07;;;;;;;11.08;47.32;96941.69;5094729;28;20024;-70
2022/02/15 11:02:03;;;;;;;13.57;8.73;;;;;;;11.10;46.41;96945.09;5094786;28;20039;-70
2022/02/15 11:04:33;;;;;;;13.87;8.80;;;;;;;10.97;46.16;96937.66;5094832;28;20028;-70
2022/02/15 11:07:05;;;;;;;10.90;8.53;;;;;;;11.04;45.18;96925.22;5094602;28;20043;-70
2022/02/15 11:09:43;;;;;;;13.57;8.93;;;;;;;11.14;46.57;96936.25;5094716;28;20435;-70
2022/02/15 11:12:32;;;;;;;14.27;8.95;;;;;;;11.12;46.43;96925.81;5094610;28;20032;-70
2022/02/15 11:15:04;;;;;;;10.75;8.43;;;;;;;11.26;45.95;96924.50;5076532;28;20035;-70
2022/02/15 11:17:31;;;;;;;14.48;8.50;;;;;;;11.40;45.17;96915.28;5094492;28;20020;-71
2022/02/15 11:20:04;;;;;;;12.63;8.63;;;;;;;11.33;45.85;96920.75;5094222;28;20089;-70
2022/02/15 11:22:53;;;;;;;13.27;9.02;;;;;;;11.26;46.05;96919.25;5094421;28;20508;-70
2022/02/15 11:25:31;;;;;;;13.38;9.50;;;;;;;11.32;46.82;96921.63;5094417;28;20039;-70
2022/02/15 11:28:11;;;;;;;11.48;8.90;;;;;;;11.32;45.35;96924.25;5094331;28;20046;-70
2022/02/15 11:30:54;;;;;;;12.23;9.63;;;;;;;11.16;46.57;96918.69;5094400;28;20129;-70